SETU/TUA METAR and TAF weather

Enter ICAO airport designator
Station Type Date Time Source
SETU METAR 2020/04/03 21:00 UTC NOAA

SETU 032100Z 09008KT 9999 BKN020 16/09 Q1029


Station Type Date Time Source
SETU Decoded METAR 2020/04/03 21:00 UTC NOAA

Tulcan / El Rosal, Ecuador (SETU) 00-49N 077-42W
Apr 03, 2020 - 05:00 PM EDT / 2020.04.03 2100 UTC
Wind: from the E (090 degrees) at 9 MPH (8 KT):0
Visibility: greater than 7 mile(s):0
Sky conditions: mostly cloudy
Temperature: 60 F (16 C)
Dew Point: 48 F (9 C)
Relative Humidity: 63%
Pressure (altimeter): 30.39 in. Hg (1029 hPa)
ob: SETU 032100Z 09008KT 9999 BKN020 16/09 Q1029
cycle: 21

Station Type Date Time Source
SETU TAF UTC NOAA

Error!

Example: see airport list